Date,TemperatureHighF,TemperatureAvgF,TemperatureLowF,DewpointHighF,DewpointAvgF,DewpointLowF,HumidityHigh,HumidityAvg,HumidityLow,PressureMaxIn,PressureMinIn,WindSpeedMaxMPH,WindSpeedAvgMPH,GustSpeedMaxMPH,PrecipitationSumIn
2013-1-1,47.0,45.3,42.7,42.0,36.6,29.0,95,73,51,30.06,29.90,10,3,12,0.16
2013-1-2,42.6,37.6,35.4,41.0,33.8,30.0,95,86,75,30.20,29.96,3,1,7,0.14
2013-1-3,36.6,33.8,26.4,29.0,25.3,22.0,93,72,60,30.25,30.16,3,0,6,0.00
2013-1-4,45.1,36.4,26.2,29.0,27.3,25.0,95,72,52,30.25,30.12,10,2,12,0.00
2013-1-5,45.9,38.3,30.7,33.0,29.0,25.0,82,70,56,30.38,30.20,5,1,8,0.00
2013-1-6,47.8,42.4,38.4,38.0,36.2,33.0,90,79,66,30.24,30.04,5,1,8,0.02
2013-1-7,47.0,40.1,29.4,37.0,31.4,27.0,92,73,50,30.44,30.12,7,1,11,0.00
2013-1-8,56.4,40.0,26.9,43.0,35.8,26.0,97,85,59,30.47,30.36,5,0,8,0.00
2013-1-9,67.2,52.6,36.0,53.0,45.7,35.0,98,79,57,30.41,30.27,7,2,12,0.00
2013-1-10,56.1,46.8,35.5,50.0,37.3,30.0,93,71,46,30.56,30.36,5,1,15,0.00
2013-1-11,59.7,48.6,33.1,58.0,46.2,32.0,97,92,79,30.49,30.10,6,1,10,0.01
2013-1-12,55.9,52.4,47.9,55.0,51.6,47.0,98,97,92,30.16,30.09,4,0,8,0.00
2013-1-13,67.5,55.2,46.4,61.0,53.5,46.0,100,94,80,30.14,30.04,5,1,7,0.01
2013-1-14,66.1,57.7,44.1,61.0,55.6,43.0,97,92,80,30.20,30.06,7,1,15,0.23
2013-1-15,46.4,43.8,42.2,46.0,42.9,41.0,98,97,94,30.25,30.07,7,2,12,0.25
2013-1-16,49.4,43.6,40.1,49.0,43.2,40.0,98,98,97,30.08,29.94,4,1,10,0.07
2013-1-17,45.8,41.6,33.3,45.0,40.7,32.0,98,96,93,30.10,29.95,8,2,15,0.99
2013-1-18,41.5,34.9,27.1,34.0,29.6,25.0,97,82,54,30.54,30.03,9,3,13,0.01
2013-1-19,55.2,36.5,24.9,35.0,28.5,24.0,95,76,42,30.50,30.12,8,1,11,0.00
2013-1-20,60.7,49.7,41.8,37.0,32.7,-99.9,74,56,40,30.10,29.89,15,-17,21,0.00
2013-1-21,56.9,46.2,32.2,40.0,31.9,23.0,78,58,45,30.08,29.79,8,2,12,0.00
2013-1-22,40.5,31.0,25.6,26.0,12.2,2.0,65,47,31,30.25,29.90,11,4,17,0.00
2013-1-23,31.9,26.2,20.9,13.0,7.9,2.0,62,47,34,30.36,30.10,9,2,12,0.00
2013-1-24,32.9,27.3,23.5,25.0,13.5,4.0,82,58,41,30.52,29.96,12,3,18,0.00
2013-1-25,28.8,24.9,21.1,23.0,16.1,6.0,93,71,48,30.51,30.09,4,0,8,0.00
2013-1-26,32.1,26.1,20.6,28.0,23.8,19.0,95,90,80,30.42,30.08,5,0,8,0.01
2013-1-27,35.5,31.1,26.5,28.0,21.5,18.0,90,68,55,30.59,30.42,4,1,8,0.05
2013-1-28,52.4,39.2,26.3,47.0,33.7,22.0,85,81,76,30.53,30.14,11,3,16,0.05
2013-1-29,71.7,56.6,48.3,56.0,50.1,46.0,92,80,59,30.15,30.06,12,3,14,0.00
2013-1-30,73.9,65.0,55.2,63.0,59.6,52.0,96,83,68,30.07,29.46,21,5,25,0.00
2013-1-31,68.1,50.5,38.2,63.0,35.6,22.0,92,59,35,29.98,29.30,20,7,36,0.44
2013-2-1,41.3,34.4,26.5,30.0,16.3,5.0,67,49,28,30.36,29.83,19,6,26,0.00
2013-2-2,40.2,30.9,21.8,21.0,11.6,6.0,68,46,28,30.40,30.01,6,1,10,0.00
2013-2-3,41.5,36.4,31.0,32.0,28.6,22.0,91,74,59,30.01,29.82,12,2,12,0.00
2013-2-4,42.7,36.2,28.8,27.0,22.1,18.0,70,57,42,30.14,29.94,11,2,13,0.00
2013-2-5,55.4,46.4,38.5,37.0,33.3,28.0,72,61,49,29.98,29.84,9,3,11,0.00
2013-2-6,48.1,41.0,33.7,38.0,34.3,31.0,93,78,60,30.32,29.92,6,1,12,0.00
2013-2-7,45.7,42.2,34.4,42.0,36.0,28.0,94,79,68,30.39,30.10,8,2,13,0.17
2013-2-8,49.2,44.1,41.6,45.0,40.8,31.0,97,89,63,30.09,29.64,15,6,25,1.30
2013-2-9,45.2,38.3,33.7,31.0,23.7,-99.9,66,58,43,30.36,29.89,15,-5,20,0.00
2013-2-10,47.2,38.4,31.0,38.0,26.9,17.0,89,64,47,30.49,30.30,5,1,9,0.00
2013-2-11,62.5,55.5,41.7,60.0,52.2,35.0,96,89,72,30.29,29.81,11,5,17,0.04
2013-2-12,59.7,53.4,47.6,54.0,38.0,31.0,82,57,38,30.01,29.82,10,3,15,0.00
2013-2-13,50.2,46.7,43.7,46.0,42.6,37.0,97,86,63,29.94,29.56,5,1,10,0.06
2013-2-14,47.1,41.2,35.5,41.0,35.1,33.0,94,79,62,30.07,29.73,10,2,15,0.00
2013-2-15,59.0,44.4,33.6,40.0,35.7,32.0,97,74,43,30.07,29.92,7,1,11,0.00
2013-2-16,45.3,37.3,31.6,38.0,33.7,30.0,95,87,73,29.97,29.76,9,4,15,0.22
2013-2-17,32.9,30.1,26.5,30.0,15.8,7.0,87,57,40,30.22,29.77,16,7,21,0.00
2013-2-18,45.0,33.9,25.1,26.0,14.4,7.0,65,46,27,30.40,30.23,14,3,15,0.00
2013-2-19,59.2,47.1,33.7,52.0,40.3,25.0,90,77,65,30.27,29.78,11,4,17,0.03
2013-2-20,46.6,41.0,33.7,39.0,24.5,19.0,80,54,34,30.12,29.86,14,4,17,0.00
2013-2-21,41.4,34.0,25.4,24.0,19.8,17.0,75,57,44,30.28,30.11,11,3,15,0.00
2013-2-22,42.0,37.1,33.7,40.0,30.0,21.0,96,76,60,30.35,30.15,6,2,10,0.07
2013-2-23,44.7,42.0,40.5,44.0,41.2,40.0,98,97,96,30.15,29.79,8,2,14,0.46
2013-2-24,52.1,44.3,37.9,45.0,40.6,26.0,100,87,62,30.07,29.76,7,3,16,0.02
2013-2-25,39.5,35.5,30.1,30.0,26.0,22.0,92,69,55,30.21,30.07,7,2,11,0.00
2013-2-26,60.1,46.3,29.4,60.0,44.3,27.0,98,92,85,30.17,29.53,14,3,27,1.04
2013-2-27,60.6,50.0,41.9,60.0,41.8,-99.9,98,79,52,29.70,29.54,10,-19,15,0.00
2013-2-28,47.0,43.0,39.5,40.0,35.9,29.0,95,77,59,29.75,29.64,9,2,14,0.00
2013-3-1,45.2,41.2,36.0,33.0,30.5,27.0,82,66,52,29.86,29.75,8,4,12,0.00
2013-3-2,40.5,37.3,34.2,28.0,26.0,23.0,70,64,59,29.88,29.80,8,4,13,0.00
2013-3-3,41.9,35.0,30.2,26.0,22.3,20.0,81,61,49,29.91,29.79,12,4,15,0.00
2013-3-4,44.1,35.4,29.5,26.0,20.8,17.0,76,56,39,30.04,29.90,12,4,15,0.00
2013-3-5,47.0,36.9,26.2,39.0,28.1,21.0,94,73,38,30.10,29.71,8,2,14,0.16
2013-3-6,47.2,40.5,35.6,46.0,38.4,33.0,97,92,82,29.84,29.29,19,8,36,0.53
2013-3-7,50.0,43.0,39.0,34.0,31.2,28.0,82,64,47,30.11,29.84,16,6,23,0.00
2013-3-8,47.2,42.0,36.1,32.0,29.1,26.0,73,61,51,30.18,30.06,18,8,26,0.00
2013-3-9,52.7,43.0,34.3,33.0,30.4,28.0,90,63,44,30.30,30.17,7,2,13,0.00
2013-3-10,54.4,42.1,28.5,44.0,35.8,27.0,95,80,39,30.33,30.27,5,1,10,0.00
2013-3-11,66.7,52.1,36.1,53.0,45.8,35.0,98,81,60,30.28,30.01,11,2,15,0.00
2013-3-12,68.5,58.7,47.6,63.0,54.7,42.0,96,86,77,30.01,29.71,8,3,16,0.23
2013-3-13,54.7,46.8,40.1,43.0,32.9,29.0,83,60,40,30.01,29.89,9,3,17,0.00
2013-3-14,48.6,40.6,33.4,28.0,22.2,18.0,58,49,35,30.16,30.02,11,4,17,0.00
2013-3-15,56.6,45.2,28.4,36.0,28.1,20.0,89,55,29,30.13,29.84,12,3,19,0.00
2013-3-16,71.5,55.9,47.3,53.0,44.9,35.0,96,68,48,29.87,29.60,8,2,12,0.17
2013-3-17,51.9,40.7,37.7,51.0,37.7,34.0,96,89,81,30.24,29.83,7,2,11,0.00
2013-3-18,45.7,40.8,36.4,45.0,39.4,33.0,97,95,84,30.25,29.87,7,2,11,0.14
2013-3-19,62.6,48.9,40.5,47.0,39.6,23.0,98,76,29,29.93,29.76,7,2,13,0.02
2013-3-20,53.6,47.1,40.0,31.0,20.5,13.0,71,36,24,30.06,29.79,9,3,12,0.00
2013-3-21,40.4,36.5,32.3,33.0,26.6,14.0,84,68,44,29.90,29.68,9,3,15,0.00
2013-3-22,49.2,37.4,29.5,29.0,18.5,12.0,80,48,28,30.02,29.90,10,4,16,0.00
2013-3-23,54.4,40.4,29.2,34.0,28.2,23.0,89,65,32,30.04,29.90,6,1,12,0.00
2013-3-24,41.1,37.4,31.9,38.0,34.2,30.0,96,88,73,29.98,29.58,10,2,13,0.56
2013-3-25,40.7,38.3,34.6,39.0,35.2,33.0,96,88,77,29.71,29.45,13,4,19,0.12
2013-3-26,47.8,41.7,34.0,35.0,32.3,29.0,85,70,54,29.99,29.71,7,3,11,0.00
2013-3-27,49.9,43.6,37.8,33.0,30.2,27.0,78,61,42,30.12,29.99,11,4,14,0.00
2013-3-28,51.8,43.8,36.7,32.0,30.2,28.0,73,60,43,30.22,30.09,8,3,13,0.00
2013-3-29,53.4,45.8,38.7,35.0,32.3,30.0,79,61,42,30.27,30.16,6,2,11,0.00
2013-3-30,60.8,48.9,36.8,42.0,35.0,30.0,93,62,32,30.21,30.12,9,2,10,0.00
2013-3-31,62.7,54.6,46.7,56.0,47.6,36.0,95,77,63,30.14,29.78,7,2,12,0.20
2013-4-1,70.8,59.2,49.0,54.0,47.9,38.0,92,69,39,29.94,29.73,9,2,16,0.00
2013-4-2,55.2,47.2,39.2,37.0,28.1,23.0,80,49,31,30.13,29.95,5,2,9,0.00
2013-4-3,53.8,45.2,38.2,35.0,27.5,22.0,84,52,30,30.35,30.11,7,1,9,0.00
2013-4-4,48.1,42.6,37.8,40.0,29.2,21.0,94,61,45,30.40,29.98,8,2,10,0.41
2013-4-5,58.0,48.1,41.7,46.0,41.7,37.0,100,81,46,29.98,29.77,8,2,14,0.38
2013-4-6,49.7,45.2,37.5,40.0,34.5,31.0,92,68,53,30.33,29.98,9,2,11,0.00
2013-4-7,69.8,55.1,36.6,51.0,42.6,34.0,96,67,38,30.31,30.09,7,-24,14,0.02
2013-4-8,78.3,65.7,54.3,59.0,54.4,50.0,88,69,44,30.14,30.02,10,4,17,0.00
2013-4-9,84.9,72.0,62.9,62.0,58.8,57.0,85,65,41,30.12,30.00,12,3,14,0.00
2013-4-10,89.4,75.8,66.1,65.0,61.2,58.0,76,62,41,30.03,29.87,10,4,15,0.00
2013-4-11,84.2,74.0,64.3,65.0,61.5,57.0,82,66,46,29.94,29.79,10,3,19,0.00
2013-4-12,77.6,70.9,67.5,70.0,66.6,64.0,95,86,72,29.81,29.59,12,4,16,0.13
2013-4-13,70.1,58.5,51.9,67.0,48.6,43.0,90,71,50,29.97,29.65,10,4,20,0.00
2013-4-14,71.0,60.6,50.2,52.0,45.4,36.0,93,61,33,30.14,29.97,8,3,12,0.00
2013-4-15,65.9,60.6,57.6,57.0,52.1,43.0,83,74,54,30.25,30.09,8,2,18,0.00
2013-4-16,73.5,64.9,55.3,61.0,56.9,52.0,91,76,63,30.30,30.20,10,4,16,0.00
2013-4-17,82.6,69.9,58.6,66.0,61.2,57.0,94,75,55,30.22,30.10,7,2,12,0.00
2013-4-18,78.4,69.8,61.5,63.0,61.0,59.0,94,75,54,30.23,30.07,13,4,18,0.00
2013-4-19,82.3,72.1,64.0,70.0,65.4,61.0,93,80,61,30.07,29.74,11,4,25,0.14
2013-4-20,64.7,55.2,47.3,64.0,46.6,34.0,96,75,44,30.27,29.78,12,3,22,0.34
2013-4-21,53.2,48.1,42.9,44.0,36.7,29.0,95,66,48,30.54,30.27,12,3,18,0.00
2013-4-22,53.0,47.8,42.8,47.0,43.4,32.0,93,84,66,30.51,30.28,13,4,27,0.01
2013-4-23,55.1,50.2,44.2,49.0,47.0,43.0,95,89,78,30.27,30.13,14,4,22,0.00
2013-4-24,74.4,59.3,43.1,60.0,52.3,42.0,97,80,54,30.15,29.92,7,2,17,0.00
2013-4-25,64.3,56.5,46.5,59.0,46.1,38.0,87,69,47,30.30,29.98,12,3,19,0.00
2013-4-26,64.9,53.7,40.3,48.0,42.2,39.0,97,68,41,30.43,30.28,8,1,10,0.00
2013-4-27,67.0,56.6,44.0,49.0,42.9,39.0,95,64,37,30.40,30.30,5,1,12,0.00
2013-4-28,66.8,56.2,42.1,56.0,46.7,40.0,95,72,51,30.30,30.13,10,2,15,0.01
2013-4-29,63.9,59.3,56.5,63.0,58.2,55.0,98,96,93,30.13,29.99,7,2,13,1.15
2013-4-30,64.4,58.3,56.1,60.0,57.0,56.0,98,95,84,30.16,30.02,11,2,18,0.01
2013-5-1,57.3,55.8,53.4,56.0,54.1,52.0,98,94,88,30.35,30.16,7,3,22,0.15
2013-5-2,62.0,56.2,52.2,56.0,52.1,49.0,96,86,76,30.37,30.28,9,3,16,0.00
2013-5-3,60.7,54.6,50.5,53.0,49.7,46.0,96,84,60,30.32,30.23,14,4,22,0.00
2013-5-4,58.4,52.8,49.9,53.0,49.5,47.0,95,88,81,30.25,30.15,15,4,19,0.00
2013-5-5,55.7,52.8,50.3,51.0,49.6,47.0,94,88,83,30.16,30.09,11,4,19,0.00
2013-5-6,72.4,62.5,53.2,63.0,58.0,52.0,98,86,67,30.09,29.95,11,4,22,0.11
2013-5-7,74.4,64.3,57.2,66.0,59.8,53.0,97,86,66,29.96,29.84,14,3,22,0.40
2013-5-8,73.2,61.9,52.5,60.0,56.2,51.0,97,83,53,30.01,29.92,7,1,14,0.02
2013-5-9,77.2,66.1,56.3,61.0,58.3,55.0,96,78,49,30.02,29.93,11,3,14,0.00
2013-5-10,85.6,73.7,60.6,65.0,60.4,58.0,94,65,42,30.03,29.93,8,2,17,0.00
2013-5-11,82.9,74.5,68.4,70.0,65.0,61.0,86,73,52,29.95,29.75,15,2,19,0.00
2013-5-12,70.0,64.1,55.1,66.0,57.2,46.0,97,79,59,30.00,29.73,8,2,14,0.13
2013-5-13,62.1,58.3,54.2,44.0,37.8,33.0,61,47,39,30.13,30.00,11,2,13,0.00
2013-5-14,65.1,56.0,43.8,48.0,39.5,32.0,90,56,35,30.22,30.09,10,3,13,0.00
2013-5-15,85.2,70.6,57.5,65.0,55.9,47.0,72,60,49,30.10,29.80,13,3,23,0.00
2013-5-16,88.9,78.8,71.3,65.0,62.5,59.0,75,59,37,29.90,29.80,16,4,31,0.00
2013-5-17,78.2,71.7,64.2,64.0,57.4,48.0,90,63,38,30.14,29.91,7,2,13,0.00
2013-5-18,72.8,66.0,58.2,66.0,61.4,53.0,97,86,66,30.21,30.11,14,3,18,1.57
2013-5-19,78.4,71.6,66.1,71.0,67.9,65.0,98,88,72,30.17,30.08,10,2,13,0.00
2013-5-20,80.6,71.6,67.9,70.0,68.0,66.0,95,88,68,30.13,30.03,11,1,18,0.05
2013-5-21,81.2,73.0,68.3,72.0,68.9,67.0,95,87,70,30.04,29.93,7,2,13,0.00
2013-5-22,83.7,75.4,68.4,73.0,68.5,66.0,92,80,60,30.00,29.91,13,3,17,0.04
2013-5-23,76.4,71.5,67.5,73.0,68.8,64.0,97,91,79,29.98,29.79,8,2,16,0.43
2013-5-24,71.4,63.0,52.8,69.0,56.9,39.0,95,81,57,30.11,29.75,15,5,23,0.19
2013-5-25,64.8,55.4,46.2,48.0,40.4,35.0,82,58,43,30.18,30.09,19,7,23,0.00
2013-5-26,69.9,59.9,47.5,51.0,44.3,40.0,92,59,37,30.23,30.14,10,3,18,0.00
2013-5-27,76.2,64.9,48.8,57.0,51.8,48.0,97,66,40,30.27,30.17,8,1,12,0.00
2013-5-28,83.0,73.1,62.7,66.0,62.2,57.0,86,70,54,30.24,30.12,5,2,16,0.00
2013-5-29,86.5,76.8,67.1,68.0,66.0,64.0,88,71,52,30.20,30.13,11,2,15,0.00
2013-5-30,87.3,77.8,67.7,71.0,66.6,64.0,88,70,49,30.25,30.15,7,2,15,0.00
2013-5-31,88.0,79.2,70.5,71.0,68.9,65.0,92,72,48,30.21,30.07,6,2,11,0.00
2013-6-1,88.6,79.7,70.8,73.0,69.8,68.0,90,73,53,30.12,29.99,6,2,14,0.00
2013-6-2,86.9,79.0,70.2,70.0,67.6,65.0,89,69,52,30.02,29.88,12,2,15,0.00
2013-6-3,78.0,74.4,71.8,73.0,70.6,67.0,95,88,76,29.92,29.82,6,1,14,0.05
2013-6-4,72.9,69.8,61.5,70.0,61.4,54.0,96,76,56,30.13,29.90,10,2,15,0.00
2013-6-5,77.0,66.3,54.6,61.0,54.6,49.0,98,70,40,30.16,30.08,8,2,12,0.00
2013-6-6,78.1,69.0,58.6,68.0,61.6,-99.9,97,80,61,30.08,29.86,11,-7,19,0.00
2013-6-7,84.4,74.3,69.4,77.0,71.7,68.0,98,92,73,29.86,29.45,15,4,24,0.83
2013-6-8,81.8,73.5,69.0,74.0,69.4,67.0,94,87,76,30.08,29.75,10,2,17,0.00
2013-6-9,83.7,74.9,64.9,74.0,69.7,64.0,97,84,66,30.16,30.08,7,2,13,0.00
2013-6-10,82.7,75.2,70.4,76.0,72.3,70.0,98,91,75,30.10,29.89,7,2,13,0.73
2013-6-11,83.0,76.5,70.6,71.0,69.4,68.0,94,79,62,29.91,29.80,12,4,18,0.00
2013-6-12,89.3,80.8,69.0,73.0,69.8,66.0,91,70,53,29.91,29.81,10,3,16,0.00
2013-6-13,94.7,81.3,70.4,77.0,72.4,67.0,92,76,49,29.82,29.50,16,4,37,0.00
2013-6-14,72.1,68.1,61.0,68.0,59.9,56.0,90,76,62,29.96,29.61,13,4,21,0.00
2013-6-15,82.4,72.8,63.3,67.0,61.8,57.0,89,70,49,30.07,29.96,8,3,12,0.00
2013-6-16,86.6,77.6,66.9,69.0,65.2,59.0,93,66,54,30.06,29.94,16,2,19,0.00
2013-6-17,84.7,75.8,71.1,73.0,69.1,66.0,91,80,64,30.01,29.93,10,2,14,0.03
2013-6-18,82.4,74.6,67.4,75.0,71.1,66.0,97,89,75,29.94,29.74,8,1,16,0.23
2013-6-19,73.9,68.9,64.2,67.0,64.7,61.0,97,87,76,30.14,29.80,9,2,16,0.00
2013-6-20,74.8,67.4,60.0,63.0,60.1,56.0,97,79,53,30.26,30.14,7,2,13,0.00
2013-6-21,77.8,68.2,62.9,71.0,65.2,60.0,95,90,78,30.26,30.22,7,2,14,0.06
2013-6-22,81.0,71.8,62.1,74.0,67.7,61.0,99,87,76,30.22,30.16,7,1,14,0.00
2013-6-23,86.5,78.1,71.7,75.0,72.8,70.0,96,84,67,30.18,30.10,7,2,14,0.00
2013-6-24,87.7,79.8,73.1,76.0,73.7,71.0,94,82,67,30.17,30.05,8,2,13,0.00
2013-6-25,90.4,81.6,72.8,77.0,73.5,71.0,93,77,61,30.08,29.93,9,3,18,0.00
2013-6-26,90.7,80.4,72.0,76.0,72.2,69.0,90,77,59,29.97,29.83,12,3,17,0.01
2013-6-27,90.1,78.9,69.9,77.0,72.2,68.0,93,81,60,29.87,29.68,11,2,20,0.01
2013-6-28,90.8,81.2,74.7,76.0,73.2,68.0,92,77,57,29.70,29.53,8,3,15,0.01
2013-6-29,85.9,77.1,69.8,75.0,71.8,68.0,95,84,67,29.73,29.55,8,2,25,0.06
2013-6-30,83.6,78.4,74.6,75.0,73.9,72.0,93,86,75,29.88,29.73,8,1,13,0.00
2013-7-1,81.9,77.4,75.3,76.0,74.3,73.0,94,90,82,30.04,29.88,9,2,17,0.06
2013-7-2,86.1,76.0,71.6,77.0,72.9,71.0,97,90,70,30.21,30.03,8,1,15,0.31
2013-7-3,84.5,78.0,71.6,79.0,74.9,71.0,98,90,73,30.26,30.18,6,1,15,0.05
2013-7-4,89.2,80.8,73.9,77.0,73.7,67.0,98,80,49,30.30,30.20,6,2,12,0.01
2013-7-5,89.2,81.5,73.6,77.0,74.3,72.0,96,79,60,30.27,30.15,8,1,13,0.00
2013-7-6,89.2,81.4,74.6,75.0,72.9,70.0,92,77,55,30.23,30.11,9,2,13,0.00
2013-7-7,88.9,82.0,74.0,75.0,72.8,71.0,90,74,56,30.16,30.03,12,2,17,0.00
2013-7-8,85.5,79.7,75.8,76.0,73.8,72.0,89,82,70,30.13,30.06,10,2,16,0.00
2013-7-9,88.5,80.7,74.9,77.0,74.2,71.0,93,81,63,30.14,30.04,10,1,13,0.00
2013-7-10,89.2,81.4,75.9,78.0,75.1,73.0,92,81,66,30.08,29.92,13,2,17,0.00
2013-7-11,85.8,76.4,71.7,76.0,72.9,71.0,98,89,71,29.95,29.89,15,2,18,1.20
2013-7-12,79.6,74.2,71.5,74.0,72.0,70.0,99,93,78,30.01,29.87,5,1,8,0.43
2013-7-13,87.1,78.5,70.4,77.0,74.0,70.0,99,87,68,30.25,30.01,14,2,18,0.05
2013-7-14,87.2,80.2,74.2,77.0,74.8,73.0,98,84,68,30.31,30.24,7,2,11,0.00
2013-7-15,88.8,79.7,70.5,78.0,73.5,70.0,99,83,58,30.31,30.20,5,1,8,0.00
2013-7-16,91.2,83.1,77.1,81.0,75.5,72.0,86,78,64,30.21,30.12,6,2,10,0.00
2013-7-17,91.3,82.9,74.8,77.0,74.6,72.0,97,77,57,30.18,30.09,5,1,9,0.00
2013-7-18,91.4,83.4,73.6,79.0,74.8,72.0,94,76,59,30.12,30.02,8,1,11,0.00
2013-7-19,91.4,84.6,77.3,79.0,76.2,74.0,90,76,62,30.06,29.94,10,2,17,0.00
2013-7-20,89.2,83.3,76.7,78.0,75.5,74.0,90,78,66,29.98,29.88,18,3,18,0.00
2013-7-21,89.3,81.2,75.3,78.0,74.7,72.0,89,81,67,29.95,29.86,10,1,13,0.01
2013-7-22,87.9,78.8,73.4,78.0,75.4,72.0,98,90,69,29.92,29.79,4,1,13,1.97
2013-7-23,87.9,80.8,75.3,77.0,75.2,74.0,99,84,65,29.80,29.66,11,3,16,0.00
2013-7-24,89.1,81.1,74.8,78.0,74.1,70.0,92,80,56,29.80,29.68,7,2,13,0.00
2013-7-25,76.1,72.4,68.8,72.0,69.5,67.0,97,90,81,29.98,29.80,10,3,28,0.84
2013-7-26,80.7,73.0,66.6,68.0,65.9,62.0,98,80,53,30.08,29.98,7,2,11,0.01
2013-7-27,82.3,74.7,64.8,70.0,65.6,62.0,97,75,55,30.07,29.95,7,1,12,0.00
2013-7-28,86.0,77.3,70.1,76.0,71.9,68.0,96,84,65,29.98,29.90,6,1,10,0.00
2013-7-29,81.0,76.6,70.1,74.0,70.5,67.0,95,82,66,30.14,29.97,9,1,13,0.00
2013-7-30,83.0,75.2,65.7,69.0,64.8,61.0,98,73,51,30.20,30.13,6,1,9,0.00
2013-7-31,82.5,75.7,69.9,71.0,67.1,64.0,93,76,57,30.14,30.03,8,2,12,0.00
2013-8-1,80.6,74.7,66.2,75.0,70.8,65.0,97,88,79,30.02,29.83,12,1,18,0.50
2013-8-2,85.5,77.4,67.9,76.0,71.2,67.0,98,82,62,29.98,29.86,5,1,9,0.00
2013-8-3,86.2,76.2,70.0,76.0,72.8,69.0,97,89,68,29.98,29.89,8,1,18,0.57
2013-8-4,80.4,74.5,66.9,72.0,67.2,60.0,98,80,51,30.00,29.85,7,1,14,0.00
2013-8-5,79.8,72.6,63.5,68.0,63.5,61.0,96,74,56,30.07,29.99,6,1,8,0.00
2013-8-6,71.3,68.4,65.7,67.0,65.0,62.0,97,89,74,30.11,30.01,8,2,12,0.38
2013-8-7,85.5,77.1,69.0,74.0,70.9,67.0,95,82,64,30.09,30.02,7,2,16,0.00
2013-8-8,85.4,78.8,72.5,77.0,73.5,70.0,94,84,69,30.07,30.00,8,2,13,0.00
2013-8-9,91.3,83.5,76.2,79.0,76.3,75.0,95,80,64,30.01,29.91,12,3,17,0.00
2013-8-10,87.0,80.0,74.8,79.0,76.0,72.0,98,88,75,30.07,29.96,11,2,30,0.89
2013-8-11,85.7,77.9,73.9,79.0,74.8,73.0,98,91,71,30.09,29.99,6,1,10,0.34
2013-8-12,87.3,79.8,73.8,79.0,75.7,72.0,96,87,73,30.02,29.91,6,1,12,0.00
2013-8-13,87.5,81.4,76.8,79.0,76.2,74.0,97,85,70,29.91,29.73,12,2,19,0.01
2013-8-14,77.0,72.4,67.5,75.0,61.4,52.0,96,70,52,30.07,29.74,11,4,23,0.00
2013-8-15,75.5,69.9,63.0,62.0,58.2,54.0,81,67,60,30.14,30.05,6,1,9,0.00
2013-8-16,75.0,69.8,60.6,67.0,61.2,57.0,91,75,63,30.16,30.08,6,1,13,0.00
2013-8-17,74.7,72.3,69.7,71.0,69.4,67.0,97,90,81,30.20,30.12,17,3,17,0.40
2013-8-18,71.7,71.2,70.4,71.0,70.8,70.0,98,98,97,30.12,30.07,8,2,15,0.50
2013-8-19,72.8,71.7,70.0,71.0,69.7,69.0,96,94,92,30.11,30.09,1,0,4,0.00
2013-8-20,80.1,73.7,66.9,73.0,70.1,66.0,99,89,74,30.17,30.09,5,0,7,0.00
2013-8-21,84.7,76.1,68.6,77.0,72.2,68.0,98,88,74,30.21,30.09,7,1,13,0.00
2013-8-22,87.1,79.4,72.7,76.0,73.4,72.0,96,82,62,30.10,29.95,9,2,13,0.00
2013-8-23,84.6,75.4,66.0,74.0,70.7,63.0,94,86,67,30.04,29.92,8,1,14,0.13
2013-8-24,78.2,71.9,65.3,69.0,65.3,61.0,91,80,70,30.30,30.05,7,2,18,0.01
2013-8-25,76.3,69.8,60.4,64.0,60.5,58.0,92,73,58,30.38,30.28,9,2,13,0.00
2013-8-26,82.3,69.3,55.6,63.0,57.2,51.0,98,70,35,30.31,30.07,6,1,10,0.00
2013-8-27,88.5,77.3,66.2,73.0,66.4,58.0,79,69,53,30.07,29.90,10,2,12,0.00
2013-8-28,84.5,78.2,74.2,76.0,73.3,71.0,94,85,72,29.92,29.82,7,1,19,0.08
2013-8-29,79.4,74.6,71.8,74.0,71.6,67.0,97,90,79,30.00,29.77,11,2,18,0.05
2013-8-30,82.9,73.8,66.8,72.0,69.1,66.0,98,85,68,30.04,29.94,7,1,11,0.00
2013-8-31,87.7,78.3,69.2,74.0,71.4,68.0,97,81,57,29.95,29.84,5,1,13,0.00
2013-9-1,89.8,79.5,72.9,78.0,74.1,71.0,96,84,63,29.88,29.78,9,1,13,0.06
2013-9-2,87.3,78.6,71.5,77.0,73.5,70.0,97,85,68,29.83,29.75,8,2,12,0.02
2013-9-3,84.8,76.2,69.9,76.0,73.1,67.0,97,90,74,29.91,29.77,11,1,12,0.08
2013-9-4,81.0,74.2,69.0,71.0,67.0,63.0,98,79,63,30.07,29.92,5,1,13,0.00
2013-9-5,85.8,75.0,64.9,73.0,68.4,64.0,99,81,57,30.06,29.98,6,1,10,0.00
2013-9-6,78.9,73.1,62.6,69.0,63.0,57.0,93,71,58,30.17,30.04,10,2,15,0.00
2013-9-7,79.4,68.5,58.3,64.0,59.6,57.0,98,75,49,30.12,29.96,5,1,9,0.00
2013-9-8,85.9,73.7,64.3,71.0,64.8,58.0,91,75,41,29.98,29.86,6,1,9,0.00
2013-9-9,83.0,75.7,69.6,74.0,70.8,68.0,96,85,73,30.15,29.98,8,2,11,0.00
2013-9-10,89.4,77.8,67.9,74.0,70.4,67.0,98,79,58,30.22,30.12,6,1,11,0.00
2013-9-11,90.3,80.0,72.3,74.0,71.0,69.0,89,75,54,30.18,30.05,9,1,13,0.00
2013-9-12,89.4,80.5,72.6,73.0,71.1,69.0,89,74,56,30.06,29.75,11,1,14,0.00
2013-9-13,79.2,75.4,72.5,72.0,67.1,57.0,93,76,56,29.84,29.68,8,1,11,0.00
2013-9-14,71.9,66.5,59.0,59.0,56.1,51.0,90,70,54,30.14,29.86,10,3,16,0.00
2013-9-15,77.0,65.6,54.9,61.0,57.4,54.0,98,77,55,30.23,30.12,4,0,7,0.00
2013-9-16,81.3,70.0,63.8,72.0,64.7,59.0,94,83,62,30.16,30.02,10,2,15,0.02
2013-9-17,67.9,64.1,59.3,60.0,56.0,50.0,85,75,68,30.34,30.17,11,2,15,0.00
2013-9-18,72.0,63.6,55.4,57.0,54.7,53.0,91,74,58,30.30,30.18,5,1,11,0.00
2013-9-19,74.7,63.1,51.9,62.0,54.4,51.0,98,76,50,30.20,30.09,9,1,9,0.00
2013-9-20,77.8,65.4,55.1,62.0,57.8,54.0,98,78,56,30.10,29.98,4,0,10,0.00
2013-9-21,80.9,68.5,56.3,69.0,62.3,55.0,98,82,63,29.99,29.74,8,1,12,0.00
2013-9-23,65.0,58.9,52.1,53.0,48.7,-99.9,91,73,62,30.07,30.01,8,-18,16,0.00
2013-9-24,70.7,60.0,49.5,56.0,52.7,48.0,96,78,59,30.08,29.94,6,1,11,0.00
2013-9-25,74.4,63.0,50.8,59.0,54.5,50.0,98,76,48,29.96,29.86,5,1,7,0.00
2013-9-26,73.8,67.1,59.6,63.0,59.9,57.0,97,78,63,30.02,29.88,6,1,13,0.00
2013-9-27,73.0,67.0,63.7,61.0,57.2,54.0,82,72,56,30.17,30.02,11,2,17,0.00
2013-9-28,72.0,65.8,62.2,63.0,58.8,56.0,87,78,68,30.22,30.15,13,2,15,0.00
2013-9-29,72.6,65.9,60.4,65.0,59.2,55.0,90,79,66,30.14,30.02,8,2,16,0.00
2013-9-30,71.0,63.4,56.7,58.0,56.2,54.0,95,79,57,30.05,29.98,8,1,14,0.00
2013-10-1,79.5,65.9,52.7,62.0,58.1,52.0,98,78,52,30.09,29.99,7,1,11,0.00
2013-10-2,83.1,71.5,61.7,66.0,61.8,58.0,90,73,50,30.09,30.01,4,1,8,0.00
2013-10-3,83.9,71.8,60.2,67.0,63.6,59.0,98,77,52,30.10,30.05,5,1,11,0.00
2013-10-4,86.8,75.1,67.5,69.0,66.1,64.0,91,75,50,30.10,30.01,7,2,11,0.00
2013-10-5,88.5,76.5,66.1,70.0,67.3,64.0,93,75,52,30.08,30.01,5,1,8,0.00
2013-10-6,86.5,75.8,68.8,71.0,68.0,66.0,94,78,51,30.06,29.96,10,2,15,0.00
2013-10-7,83.7,73.4,63.4,73.0,69.5,62.0,98,88,64,29.98,29.82,11,2,19,0.63
2013-10-8,65.5,62.8,60.1,62.0,54.9,50.0,94,76,63,30.18,29.98,15,4,20,0.01
2013-10-9,63.2,61.9,60.3,61.0,58.9,56.0,97,90,77,30.17,30.06,9,4,19,1.01
2013-10-14,66.3,62.7,60.7,60.0,58.6,58.0,91,86,81,30.18,30.17,8,2,11,0.00
2013-10-15,65.6,63.6,60.4,64.0,61.5,58.0,96,93,90,30.17,30.02,8,2,13,0.01
2013-10-16,71.4,66.2,62.2,64.0,63.1,61.0,96,90,76,30.02,29.93,5,1,9,0.00
2013-10-17,76.5,68.4,59.8,66.0,63.4,59.0,99,85,68,29.93,29.79,7,1,9,0.00
2013-10-18,70.3,66.0,61.8,66.0,57.5,49.0,89,75,58,30.01,29.81,9,4,13,0.00
2013-10-21,52.4,52.4,52.4,49.8,49.8,49.8,91,91,91,30.03,30.03,0,0,0,0.00
2013-10-23,56.3,55.9,55.5,51.8,51.8,51.7,87,86,85,29.66,29.66,5,5,5,0.00